Airfield :
LOGIN :

Register | Disclaimer

   EN    FR    IT 

 










Legend :    VFR   Marginal VFR   IFR   Intensive IFR   Very Intensive IFR
Visi :
Ceiling :
>= 8 km
>= 3000ft
5 to 8 km
1000 to 3000 ft
1500m to 5 km
500 to 1000 ft
800 to 1500m
200 to 500 ft
< 800m
< 200 ft
Symbols :   Thunderstorms  Fog  Heavy snow  Heavy precipitations  Wind > 20 kt
SIGMETs :     Misc.  Thunderstorms  Icing  Turbulence  Mountain Waves  Volcanic Ashes







- Airport Elevation : 53 ft
- IATA code : LBC


EDHL - Lübeck

CURRENT METAR :
  • 241720Z VRB01KT CAVOK 11/M01 Q1032

EXPIRED METARs :
  • 241650Z 28003KT 240V320 CAVOK 12/M01 Q1032
  • 241620Z 29004KT 250V010 CAVOK 12/M02 Q1032
  • 241550Z VRB03KT CAVOK 12/M02 Q1032
  • 241520Z VRB04KT CAVOK 12/M03 Q1032
  • 241450Z 31006KT 260V340 CAVOK 12/M02 Q1032

TAF TAF EDHL
Valid from the 24 at 18:00 until the 24 at 21:00 UTC


241700Z 2418/2421 VRB03KT CAVOK
TEMPO 2418/2421 35005KT
No reported NOTAMs for that airfield.



MET'MAP, your aeronautical weather chart ! - Copyright ORBIFLY December 2007 - Disclaimer

ORBIFLY MET'MAP TEAM :

Programming & Development : Alexandra Zaïnal
Concept & Development : Baudouin d'Aumeries
Co-Development & Prog : Marc-Olivier Méhu
Technical & hardware support : Manuel Goepfert

Contact : metmap@orbifly.com




SOURCES & CREDITS :

   NOAA